Time;durP1;ratioP1;P1;durP2;ratioP2;P2;SDS_P1;SDS_P2;PMS_P1;PMS_P2;Temp;Humidity;BMP_temperature;BMP_pressure;BME280_temperature;BME280_humidity;BME280_pressure;Samples;Min_cycle;Max_cycle;Signal;HPM_P1;HPM_P2
2021/06/18 00:01:15;;;;;;;11.80;10.70;;;;;;;25.22;53.47;96947.97;5036374;28;20031;-78
2021/06/18 00:03:40;;;;;;;11.65;10.65;;;;;;;25.22;53.51;96957.84;5033457;28;20052;-78
2021/06/18 00:06:06;;;;;;;11.65;10.57;;;;;;;25.11;53.70;96952.28;5033284;28;20033;-78
2021/06/18 00:08:31;;;;;;;11.70;10.52;;;;;;;25.04;54.14;96950.22;5053469;28;20036;-78
2021/06/18 00:10:57;;;;;;;12.25;11.07;;;;;;;24.98;54.32;96946.25;5070749;28;20041;-78
2021/06/18 00:13:22;;;;;;;11.73;10.73;;;;;;;24.93;54.31;96945.75;5053073;28;20032;-78
2021/06/18 00:15:50;;;;;;;11.77;10.77;;;;;;;24.82;54.66;96946.25;5035479;28;20032;-78
2021/06/18 00:18:16;;;;;;;11.57;10.40;;;;;;;24.84;54.88;96952.00;5036868;28;20116;-78
2021/06/18 00:20:41;;;;;;;11.63;10.55;;;;;;;24.79;54.61;96944.28;5071349;28;20564;-78
2021/06/18 00:23:07;;;;;;;12.18;11.07;;;;;;;24.70;54.90;96941.00;5030397;28;20094;-78
2021/06/18 00:25:32;;;;;;;13.95;11.98;;;;;;;24.57;55.39;96928.88;5041378;28;20033;-78
2021/06/18 00:27:58;;;;;;;12.10;11.00;;;;;;;24.64;55.00;96931.72;5056594;28;20036;-78
2021/06/18 00:30:24;;;;;;;12.00;11.00;;;;;;;24.63;55.08;96928.28;5023894;28;20020;-78
2021/06/18 00:32:49;;;;;;;13.10;11.90;;;;;;;24.62;55.20;96934.72;5022445;28;20033;-78
2021/06/18 00:35:15;;;;;;;12.27;11.07;;;;;;;24.60;54.95;96936.19;5057790;28;20371;-78
2021/06/18 00:37:40;;;;;;;12.45;11.25;;;;;;;24.71;54.54;96945.22;5057077;28;20040;-78
2021/06/18 00:40:06;;;;;;;12.07;10.98;;;;;;;24.73;54.63;96950.19;5056185;28;20417;-78
2021/06/18 00:42:32;;;;;;;12.70;11.45;;;;;;;24.75;54.88;96948.75;5037849;28;20032;-78
2021/06/18 00:44:57;;;;;;;11.82;10.73;;;;;;;24.74;54.45;96941.88;5056076;28;20032;-78
2021/06/18 00:47:24;;;;;;;12.32;11.10;;;;;;;24.74;54.41;96952.50;5022845;28;20037;-78
2021/06/18 00:49:51;;;;;;;11.25;10.25;;;;;;;24.68;54.56;96941.34;5055854;28;20035;-78
2021/06/18 00:52:17;;;;;;;12.00;10.80;;;;;;;24.67;54.57;96947.00;5026173;28;20029;-78
2021/06/18 00:54:44;;;;;;;13.10;11.85;;;;;;;24.65;55.13;96950.00;5036294;28;20039;-78
2021/06/18 00:57:10;;;;;;;11.30;10.30;;;;;;;24.63;55.11;96943.50;5050092;28;20365;-78
2021/06/18 00:59:35;;;;;;;12.35;11.25;;;;;;;24.60;55.22;96950.25;5028225;28;20032;-78
2021/06/18 01:02:01;;;;;;;11.48;10.38;;;;;;;24.55;55.47;96950.50;5054058;28;20033;-78
2021/06/18 01:04:28;;;;;;;10.48;9.55;;;;;;;24.52;55.42;96953.81;5084984;22;20044;-74
2021/06/18 01:07:02;;;;;;;10.60;9.60;;;;;;;24.41;54.85;96952.78;5041682;28;20028;-74
2021/06/18 01:09:31;;;;;;;11.45;10.35;;;;;;;24.56;54.69;96959.28;5059568;28;20032;-74
2021/06/18 01:12:02;;;;;;;12.48;11.40;;;;;;;24.58;54.59;96954.41;5079475;28;20059;-74
2021/06/18 01:15:05;;;;;;;12.57;11.40;;;;;;;24.46;55.41;96955.19;5076115;28;20107;-74
2021/06/18 01:17:41;;;;;;;13.18;11.98;;;;;;;24.58;55.05;96957.81;5091794;28;20043;-74
2021/06/18 01:20:35;;;;;;;12.70;11.50;;;;;;;24.38;55.27;96959.56;5089001;28;20032;-74
2021/06/18 01:23:01;;;;;;;12.60;11.50;;;;;;;24.52;54.97;96966.38;5075218;28;20466;-74
2021/06/18 01:25:48;;;;;;;11.93;10.82;;;;;;;24.24;55.36;96996.44;5057758;28;20071;-74
2021/06/18 01:28:46;;;;;;;12.02;10.93;;;;;;;24.09;56.13;96998.69;5087160;28;20039;-75
2021/06/18 01:31:15;;;;;;;13.02;11.82;;;;;;;24.23;56.02;97000.19;5072399;28;20040;-74
2021/06/18 01:33:43;;;;;;;13.88;12.48;;;;;;;24.25;55.82;96992.66;5079938;28;20131;-74
2021/06/18 01:36:09;;;;;;;13.32;12.13;;;;;;;24.34;55.83;96995.94;5092644;28;20066;-74
2021/06/18 01:38:39;;;;;;;14.35;12.85;;;;;;;24.08;56.92;96983.84;5085699;28;20032;-74
2021/06/18 01:41:05;;;;;;;14.65;13.07;;;;;;;24.11;56.93;96982.38;5071853;28;20029;-74
2021/06/18 01:43:32;;;;;;;13.50;12.10;;;;;;;23.98;57.08;96992.28;5085007;28;20036;-74
2021/06/18 01:45:58;;;;;;;13.63;12.23;;;;;;;24.00;57.15;96992.72;5054872;28;20037;-74
2021/06/18 01:48:24;;;;;;;14.10;12.80;;;;;;;23.95;57.43;96990.28;5079938;28;20084;-74
2021/06/18 01:50:52;;;;;;;13.35;12.13;;;;;;;23.92;57.94;96988.31;5071089;28;20033;-74
2021/06/18 01:53:19;;;;;;;13.88;12.57;;;;;;;23.93;58.04;96987.19;5074010;28;20032;-74
2021/06/18 01:55:47;;;;;;;14.38;12.27;;;;;;;23.88;58.37;96988.19;5090861;28;20032;-74
2021/06/18 01:58:12;;;;;;;13.10;11.80;;;;;;;23.91;58.07;96982.22;5074224;28;20028;-74
2021/06/18 02:00:46;;;;;;;15.20;13.60;;;;;;;23.69;58.87;96983.44;5043917;28;20451;-74
2021/06/18 02:03:14;;;;;;;14.23;12.90;;;;;;;23.86;58.33;96987.00;5086122;28;20087;-74
2021/06/18 02:05:41;;;;;;;13.73;12.40;;;;;;;23.85;58.25;96988.09;5077465;28;20036;-74
2021/06/18 02:08:07;;;;;;;13.48;12.15;;;;;;;23.84;58.32;96987.34;5082658;28;20086;-74
2021/06/18 02:10:34;;;;;;;14.13;12.63;;;;;;;23.80;59.04;96980.31;5090500;28;20482;-74
2021/06/18 02:13:04;;;;;;;13.77;12.38;;;;;;;23.79;58.87;96979.56;5077888;28;20053;-74
2021/06/18 02:15:30;;;;;;;13.20;11.88;;;;;;;23.78;59.27;96978.00;5073233;28;20134;-74
2021/06/18 02:17:56;;;;;;;14.32;12.93;;;;;;;23.77;59.33;96983.66;5083254;28;20024;-74
2021/06/18 02:20:22;;;;;;;14.20;12.80;;;;;;;23.71;59.01;96981.22;5089976;28;20361;-74
2021/06/18 02:22:48;;;;;;;16.73;12.07;;;;;;;23.71;59.51;96983.88;5091673;28;20383;-74
2021/06/18 02:25:15;;;;;;;13.80;12.38;;;;;;;23.72;59.26;96980.13;5072962;28;20027;-74
2021/06/18 02:27:41;;;;;;;15.02;13.13;;;;;;;23.71;59.47;96991.09;5089921;28;20063;-74
2021/06/18 02:30:08;;;;;;;12.70;11.50;;;;;;;23.77;59.01;96992.41;5090368;28;20024;-74
2021/06/18 02:32:35;;;;;;;13.30;11.90;;;;;;;23.73;59.71;96994.97;5090165;28;20517;-74
2021/06/18 02:35:01;;;;;;;13.20;11.88;;;;;;;23.70;59.21;96995.63;5070621;28;20035;-74
2021/06/18 02:37:26;;;;;;;12.70;11.40;;;;;;;23.79;59.58;96992.09;5089916;28;20020;-74
2021/06/18 02:39:52;;;;;;;14.73;11.93;;;;;;;23.84;59.01;97000.63;5090011;28;20653;-74
2021/06/18 02:42:17;;;;;;;12.95;11.65;;;;;;;23.89;58.80;97000.41;5090211;28;20039;-74
2021/06/18 02:44:43;;;;;;;12.25;10.98;;;;;;;23.82;59.21;97008.16;5089632;28;20031;-74
2021/06/18 02:47:22;;;;;;;12.75;11.43;;;;;;;23.69;59.03;97002.06;5066233;28;20099;-74
2021/06/18 02:49:57;;;;;;;12.60;11.40;;;;;;;23.80;58.85;97010.34;5089544;28;20127;-74
2021/06/18 02:52:47;;;;;;;11.23;10.13;;;;;;;23.63;58.91;97011.38;5089520;28;20088;-74
2021/06/18 02:55:16;;;;;;;12.70;10.27;;;;;;;23.82;58.39;97007.38;5043508;28;20086;-74
2021/06/18 02:57:51;;;;;;;11.90;10.68;;;;;;;23.81;58.20;97016.44;5089797;28;20036;-74
2021/06/18 03:00:17;;;;;;;11.82;10.63;;;;;;;23.91;58.34;97013.38;5082892;28;20032;-74
2021/06/18 03:02:46;;;;;;;11.40;10.30;;;;;;;23.82;58.43;97013.50;5089535;28;20036;-74
2021/06/18 03:05:13;;;;;;;12.05;10.50;;;;;;;23.84;58.26;97013.94;5083335;28;20057;-74
2021/06/18 03:07:43;;;;;;;11.93;10.80;;;;;;;23.75;58.36;97007.91;5072482;28;20126;-74
2021/06/18 03:10:09;;;;;;;11.45;10.27;;;;;;;23.85;58.32;97004.81;5089492;28;20149;-74
2021/06/18 03:12:40;;;;;;;11.18;10.18;;;;;;;23.71;58.79;97007.03;5055954;28;20035;-74
2021/06/18 03:15:07;;;;;;;11.07;9.95;;;;;;;23.79;58.57;97008.03;5089216;28;20103;-74
2021/06/18 03:17:37;;;;;;;10.65;9.55;;;;;;;23.75;58.17;97006.03;5085704;28;20021;-74
2021/06/18 03:20:07;;;;;;;10.27;9.38;;;;;;;23.72;58.24;97004.06;5086177;28;20032;-74
2021/06/18 03:22:33;;;;;;;10.90;9.80;;;;;;;23.81;58.20;97011.13;5089407;28;20038;-74
2021/06/18 03:25:02;;;;;;;11.25;10.15;;;;;;;23.75;58.31;97014.03;5055155;28;20086;-74
2021/06/18 03:27:29;;;;;;;10.75;9.68;;;;;;;23.70;58.48;97008.94;5072591;28;20066;-74
2021/06/18 03:29:55;;;;;;;10.55;9.45;;;;;;;23.77;58.31;97010.25;5088723;28;20024;-74
2021/06/18 03:32:21;;;;;;;9.90;8.95;;;;;;;23.75;58.16;97015.88;5055991;28;20030;-74
2021/06/18 03:34:48;;;;;;;10.05;9.05;;;;;;;23.79;58.31;97018.69;5086713;28;20528;-74
2021/06/18 03:37:13;;;;;;;11.30;9.30;;;;;;;23.79;57.94;97013.34;5072445;28;20059;-74
2021/06/18 03:39:39;;;;;;;9.65;8.75;;;;;;;23.81;57.86;97014.59;5069217;28;20063;-74
2021/06/18 03:42:05;;;;;;;8.88;7.97;;;;;;;23.85;57.95;97018.13;5068746;28;20070;-74
2021/06/18 03:44:31;;;;;;;9.70;8.73;;;;;;;23.85;57.55;97017.34;5071728;28;20027;-74
2021/06/18 03:46:57;;;;;;;10.57;9.48;;;;;;;23.85;57.69;97027.97;5071699;28;20351;-74
2021/06/18 03:49:25;;;;;;;10.35;9.35;;;;;;;23.84;57.44;97024.56;5071335;28;20087;-74
2021/06/18 03:51:51;;;;;;;10.38;9.38;;;;;;;23.86;57.56;97029.53;5072019;28;20024;-74
2021/06/18 03:54:17;;;;;;;11.07;9.70;;;;;;;23.87;57.60;97025.75;5088694;28;20089;-74
2021/06/18 03:56:47;;;;;;;11.13;9.55;;;;;;;23.93;57.93;97024.44;5071963;28;20020;-74
2021/06/18 03:59:14;;;;;;;12.52;10.90;;;;;;;23.87;57.83;97031.88;5089044;28;20032;-74
2021/06/18 04:01:41;;;;;;;10.75;9.82;;;;;;;23.82;57.98;97018.00;5088791;28;20043;-74
2021/06/18 04:04:07;;;;;;;10.13;9.13;;;;;;;23.89;57.94;97018.25;5081583;28;20502;-74
2021/06/18 04:06:33;;;;;;;9.70;8.90;;;;;;;23.97;57.79;97022.63;5066949;28;20032;-74
2021/06/18 04:08:59;;;;;;;10.77;9.65;;;;;;;23.98;58.01;97021.53;5088642;28;20103;-74
2021/06/18 04:11:24;;;;;;;9.02;8.23;;;;;;;24.02;58.10;97021.66;5088796;28;20035;-74
2021/06/18 04:13:49;;;;;;;9.77;8.77;;;;;;;24.07;58.17;97024.84;5071239;28;20451;-74
2021/06/18 04:16:18;;;;;;;9.80;8.90;;;;;;;24.05;58.12;97020.97;5071704;28;20024;-74
2021/06/18 04:18:45;;;;;;;9.77;8.77;;;;;;;24.09;58.00;97027.97;5080180;28;20044;-74
2021/06/18 04:21:15;;;;;;;8.70;7.90;;;;;;;24.16;57.94;97026.59;5071649;28;20039;-74
2021/06/18 04:23:40;;;;;;;9.73;8.43;;;;;;;24.29;57.75;97022.78;5088126;28;20031;-74
2021/06/18 04:26:06;;;;;;;8.98;8.10;;;;;;;24.36;57.48;97025.66;5088559;28;20367;-74
2021/06/18 04:28:31;;;;;;;10.25;8.70;;;;;;;24.43;57.28;97028.50;5088791;28;20120;-74
2021/06/18 04:30:57;;;;;;;8.73;7.93;;;;;;;24.52;57.17;97027.59;5088614;28;20088;-74
2021/06/18 04:33:23;;;;;;;9.80;8.90;;;;;;;24.56;56.61;97028.50;5070509;28;20163;-74
2021/06/18 04:35:48;;;;;;;9.77;8.25;;;;;;;24.61;57.18;97020.28;5071242;28;20078;-74
2021/06/18 04:38:14;;;;;;;8.80;7.93;;;;;;;24.64;57.34;97011.59;5071276;28;20062;-74
2021/06/18 04:40:39;;;;;;;9.13;8.25;;;;;;;24.64;57.41;97015.03;5088346;28;20402;-74
2021/06/18 04:43:05;;;;;;;8.77;7.88;;;;;;;24.70;57.60;97015.56;5088293;28;20073;-74
2021/06/18 04:45:31;;;;;;;9.10;8.20;;;;;;;24.73;57.39;97014.88;5088515;28;20378;-74
2021/06/18 04:47:58;;;;;;;8.80;7.97;;;;;;;24.79;56.93;97015.41;5071649;28;20028;-74
2021/06/18 04:50:23;;;;;;;9.23;8.27;;;;;;;24.85;57.00;97014.06;5089678;28;20040;-74
2021/06/18 04:52:49;;;;;;;9.80;8.18;;;;;;;24.88;56.86;97008.00;5071645;28;20043;-74
2021/06/18 04:55:16;;;;;;;8.45;7.70;;;;;;;24.95;57.10;97010.09;5070941;28;20602;-74
2021/06/18 04:57:46;;;;;;;7.60;6.93;;;;;;;24.91;56.08;97007.34;5088460;28;20067;-74
2021/06/18 05:00:13;;;;;;;8.10;7.30;;;;;;;25.12;55.55;96998.31;5074130;28;20029;-74
2021/06/18 05:02:38;;;;;;;8.57;7.75;;;;;;;25.21;56.12;96991.72;5066666;28;20058;-74
2021/06/18 05:05:04;;;;;;;8.90;8.10;;;;;;;25.27;55.69;96988.81;5068521;28;20390;-74
2021/06/18 05:07:30;;;;;;;9.77;8.23;;;;;;;25.36;55.09;96986.75;5057334;28;20111;-75
2021/06/18 05:09:55;;;;;;;9.00;8.18;;;;;;;25.38;55.06;96985.28;5073997;28;20129;-74
2021/06/18 05:12:21;;;;;;;8.15;7.43;;;;;;;25.45;55.26;96978.56;5073919;28;20032;-74
2021/06/18 05:14:50;;;;;;;7.97;7.25;;;;;;;25.58;54.31;96977.34;5074324;28;20104;-74
2021/06/18 05:17:15;;;;;;;8.13;7.40;;;;;;;25.66;54.66;96980.94;5112387;28;20470;-74
2021/06/18 05:19:41;;;;;;;8.35;7.10;;;;;;;25.76;54.38;96975.06;5064849;28;20474;-74
2021/06/18 05:22:06;;;;;;;8.82;7.95;;;;;;;25.83;54.64;96959.22;5060700;28;20027;-75
2021/06/18 05:24:32;;;;;;;8.52;7.72;;;;;;;25.94;54.16;96962.09;5086223;28;20043;-75
2021/06/18 05:26:57;;;;;;;8.10;7.15;;;;;;;25.95;54.39;96956.44;5095118;28;20032;-75
2021/06/18 05:29:25;;;;;;;8.35;7.55;;;;;;;26.07;54.39;96960.09;5107693;28;20038;-74
2021/06/18 05:31:51;;;;;;;8.77;7.97;;;;;;;26.16;53.73;96960.66;5094450;28;20036;-75
2021/06/18 05:34:16;;;;;;;7.70;7.00;;;;;;;26.25;53.15;96953.22;5076353;28;20032;-75
2021/06/18 05:36:44;;;;;;;7.90;7.30;;;;;;;26.29;52.41;96956.72;5094776;28;20024;-75
2021/06/18 05:39:14;;;;;;;8.50;7.60;;;;;;;26.26;52.01;96957.41;5088484;28;20020;-75
2021/06/18 05:41:39;;;;;;;8.75;7.25;;;;;;;26.55;52.01;96957.94;5081390;28;20397;-74
2021/06/18 05:44:05;;;;;;;7.47;6.70;;;;;;;26.66;51.27;96952.81;5087884;28;20028;-75
2021/06/18 05:46:31;;;;;;;8.35;6.85;;;;;;;26.80;50.69;96945.06;5094273;28;20393;-75
2021/06/18 05:48:57;;;;;;;8.32;7.05;;;;;;;26.89;49.94;96950.16;5066331;28;20044;-74
2021/06/18 05:51:23;;;;;;;6.93;6.32;;;;;;;26.95;50.31;96948.72;5060113;28;20027;-75
2021/06/18 05:53:48;;;;;;;7.25;6.55;;;;;;;27.01;49.69;96952.63;5071135;28;20349;-75
2021/06/18 05:56:14;;;;;;;6.30;5.35;;;;;;;27.20;49.44;96959.03;5111137;28;20039;-75
2021/06/18 05:58:40;;;;;;;7.15;6.55;;;;;;;27.24;48.62;96962.53;5077230;28;20035;-75
2021/06/18 06:01:05;;;;;;;6.25;5.72;;;;;;;27.36;48.13;96964.25;5073592;28;20031;-75
2021/06/18 06:03:31;;;;;;;6.30;5.70;;;;;;;27.60;48.18;96973.75;5089556;28;20036;-75
2021/06/18 06:05:57;;;;;;;5.72;5.22;;;;;;;27.80;47.47;96969.84;5074456;28;20144;-75
2021/06/18 06:08:23;;;;;;;7.65;5.93;;;;;;;27.83;46.67;96971.78;5093814;28;20038;-75
2021/06/18 06:10:49;;;;;;;6.88;5.57;;;;;;;28.18;46.22;96964.59;5076616;28;20058;-75
2021/06/18 06:13:16;;;;;;;6.88;6.20;;;;;;;28.36;46.43;96970.13;5093414;28;20381;-74
2021/06/18 06:15:41;;;;;;;6.15;5.60;;;;;;;28.43;44.52;96964.88;5076982;28;20135;-74
2021/06/18 06:18:07;;;;;;;6.78;5.32;;;;;;;28.83;44.96;96963.34;5060451;28;20114;-74
2021/06/18 06:20:35;;;;;;;5.75;5.15;;;;;;;28.84;44.89;96964.91;5060061;28;20067;-75
2021/06/18 06:23:00;;;;;;;6.95;5.85;;;;;;;28.93;43.67;96969.94;5081992;28;20073;-75
2021/06/18 06:25:25;;;;;;;5.82;5.22;;;;;;;29.12;44.60;96966.25;5088232;28;20477;-74
2021/06/18 06:27:51;;;;;;;6.75;5.72;;;;;;;29.29;43.58;96965.66;5089936;28;20493;-75
2021/06/18 06:30:16;;;;;;;5.57;5.10;;;;;;;29.49;42.88;96974.22;5082282;28;20524;-74
2021/06/18 06:32:45;;;;;;;6.72;4.90;;;;;;;29.43;42.41;96964.97;5093544;28;20032;-74
2021/06/18 06:35:11;;;;;;;5.70;5.10;;;;;;;29.36;42.21;96964.16;5066266;28;20746;-74
2021/06/18 06:37:36;;;;;;;5.45;4.93;;;;;;;29.70;42.17;96962.81;5059124;28;20024;-75
2021/06/18 06:40:02;;;;;;;6.32;5.15;;;;;;;29.84;41.55;96956.78;5042287;28;20120;-75
2021/06/18 06:42:27;;;;;;;5.05;4.55;;;;;;;29.95;40.99;96961.44;5109721;28;20038;-75
2021/06/18 06:44:53;;;;;;;5.85;5.20;;;;;;;30.12;41.08;96960.72;5089305;28;20032;-74
2021/06/18 06:47:19;;;;;;;6.40;4.97;;;;;;;29.95;40.50;96967.56;5094943;28;20045;-75
2021/06/18 06:49:44;;;;;;;5.35;4.68;;;;;;;30.52;40.39;96972.38;5081925;28;20036;-76
2021/06/18 06:52:12;;;;;;;5.68;4.68;;;;;;;30.66;39.24;96982.38;5087888;28;20040;-75
2021/06/18 06:54:38;;;;;;;6.63;4.88;;;;;;;31.00;38.07;96995.50;5061093;28;20031;-74
2021/06/18 06:57:03;;;;;;;5.63;5.13;;;;;;;31.35;36.39;96994.72;5089812;28;20047;-74
2021/06/18 06:59:29;;;;;;;5.32;3.95;;;;;;;31.50;37.10;96992.03;5090827;28;20024;-74
2021/06/18 07:01:54;;;;;;;4.95;4.22;;;;;;;31.67;37.10;96996.63;5106424;28;20030;-74
2021/06/18 07:04:19;;;;;;;6.57;4.45;;;;;;;31.66;36.98;96997.00;5081331;28;20035;-74
2021/06/18 07:06:45;;;;;;;11.00;5.57;;;;;;;31.68;37.08;96998.13;5073182;28;20119;-75
2021/06/18 07:09:11;;;;;;;5.63;4.90;;;;;;;31.46;36.76;96997.41;5064595;28;20028;-75
2021/06/18 07:11:36;;;;;;;7.10;4.97;;;;;;;31.34;37.71;96995.09;5062866;28;20042;-75
2021/06/18 07:14:04;;;;;;;5.60;4.60;;;;;;;31.53;36.79;96994.72;5052871;28;20027;-75
2021/06/18 07:16:30;;;;;;;6.65;5.50;;;;;;;31.81;35.77;97009.28;5104559;28;20031;-75
2021/06/18 07:18:55;;;;;;;5.32;4.47;;;;;;;31.89;37.19;97002.72;5075448;28;20105;-75
2021/06/18 07:21:21;;;;;;;7.88;5.40;;;;;;;32.11;36.34;97013.44;5085857;28;20098;-76
2021/06/18 07:23:46;;;;;;;5.50;4.80;;;;;;;31.78;36.03;97007.34;5107841;28;20027;-76
2021/06/18 07:26:12;;;;;;;4.85;4.43;;;;;;;31.52;35.96;97001.25;5089534;28;20067;-76
2021/06/18 07:28:37;;;;;;;7.95;5.35;;;;;;;31.52;36.47;97000.50;5108447;28;20031;-76
2021/06/18 07:31:03;;;;;;;5.95;4.18;;;;;;;31.75;37.03;97008.13;5075901;28;20028;-76
2021/06/18 07:33:29;;;;;;;6.65;5.15;;;;;;;31.89;36.21;97008.09;5090384;28;20390;-76
2021/06/18 07:35:54;;;;;;;21.00;5.82;;;;;;;31.91;36.87;97013.84;5077358;28;20028;-76
2021/06/18 07:38:19;;;;;;;5.93;4.57;;;;;;;31.81;37.07;97017.34;5092483;28;20032;-76
2021/06/18 07:40:45;;;;;;;6.03;4.38;;;;;;;31.49;36.29;97012.00;5057623;28;20361;-76
2021/06/18 07:43:10;;;;;;;6.43;4.40;;;;;;;31.21;36.72;97015.50;5055512;28;20035;-76
2021/06/18 07:45:36;;;;;;;7.35;4.88;;;;;;;31.27;36.81;97014.69;5084501;28;20029;-76
2021/06/18 07:48:02;;;;;;;7.63;5.07;;;;;;;31.25;37.40;97027.75;5062652;28;20111;-75
2021/06/18 07:50:28;;;;;;;5.28;4.78;;;;;;;31.57;37.08;97020.88;5073885;28;20040;-77
2021/06/18 07:52:53;;;;;;;5.50;4.72;;;;;;;31.84;36.71;97030.03;5082879;28;20031;-76
2021/06/18 07:55:23;;;;;;;5.72;5.13;;;;;;;32.03;36.91;97026.13;5096710;28;20036;-76
2021/06/18 07:57:52;;;;;;;5.53;4.70;;;;;;;32.07;36.20;97026.16;5079313;28;20072;-76
2021/06/18 08:00:18;;;;;;;6.00;5.13;;;;;;;32.48;34.92;97033.66;5061308;28;20028;-75
2021/06/18 08:02:43;;;;;;;6.35;5.05;;;;;;;32.48;35.16;97034.44;5086985;28;20044;-76
2021/06/18 08:05:12;;;;;;;7.78;5.60;;;;;;;32.26;36.88;97035.69;5083212;28;20419;-76
2021/06/18 08:07:42;;;;;;;6.38;5.07;;;;;;;32.07;36.79;97037.69;5085301;28;20028;-76
2021/06/18 08:10:09;;;;;;;6.78;4.93;;;;;;;32.14;36.00;97026.13;5076505;28;20107;-74
2021/06/18 08:12:35;;;;;;;5.93;5.32;;;;;;;32.05;36.89;97029.22;5082749;28;20032;-75
2021/06/18 08:15:02;;;;;;;7.25;5.20;;;;;;;31.90;36.75;97025.78;5084286;28;20039;-75
2021/06/18 08:17:27;;;;;;;6.40;5.43;;;;;;;31.84;37.30;97027.34;5079531;28;20025;-74
2021/06/18 08:19:52;;;;;;;7.25;6.05;;;;;;;31.62;38.21;97023.94;5074657;28;20042;-75
2021/06/18 08:22:18;;;;;;;5.95;5.30;;;;;;;31.65;37.50;97023.16;5086596;28;20028;-77
2021/06/18 08:24:44;;;;;;;5.78;5.28;;;;;;;31.77;37.17;97023.88;5055496;28;20157;-77
2021/06/18 08:27:09;;;;;;;5.30;4.80;;;;;;;31.81;36.83;97020.03;5084162;28;20032;-75
2021/06/18 08:29:35;;;;;;;6.05;5.45;;;;;;;31.70;38.28;97021.97;5077469;28;20027;-75
2021/06/18 08:32:00;;;;;;;8.18;5.70;;;;;;;31.76;37.93;97015.06;5060531;28;20036;-75
2021/06/18 08:34:26;;;;;;;6.90;5.38;;;;;;;31.98;38.11;97023.84;5078378;28;20019;-75
2021/06/18 08:36:52;;;;;;;6.43;5.47;;;;;;;32.16;35.78;97023.03;5063067;28;20066;-75
2021/06/18 08:39:18;;;;;;;6.15;5.55;;;;;;;32.66;36.70;97018.19;5095514;28;20036;-74
2021/06/18 08:41:43;;;;;;;7.53;5.80;;;;;;;32.71;35.19;97024.31;5090353;28;20039;-75
2021/06/18 08:44:09;;;;;;;10.10;6.20;;;;;;;32.82;35.58;97016.94;5040343;28;20546;-75
2021/06/18 08:46:34;;;;;;;8.43;5.47;;;;;;;33.28;34.87;97015.06;5086888;28;20536;-75
2021/06/18 08:48:59;;;;;;;6.13;5.63;;;;;;;33.38;34.30;97019.59;5085707;28;20039;-74
2021/06/18 08:51:25;;;;;;;6.85;5.95;;;;;;;33.25;34.77;97013.94;5076343;28;20043;-75
2021/06/18 08:53:51;;;;;;;6.82;5.47;;;;;;;33.60;34.83;97012.06;5068464;28;20060;-74
2021/06/18 08:56:18;;;;;;;7.57;6.15;;;;;;;34.21;33.95;97008.75;5069450;28;20028;-75
2021/06/18 08:58:43;;;;;;;6.18;5.60;;;;;;;34.62;32.56;97005.13;5069054;28;20043;-75
2021/06/18 09:01:09;;;;;;;6.93;5.68;;;;;;;34.86;31.89;97005.94;5059530;28;20028;-75
2021/06/18 09:03:45;;;;;;;7.43;5.38;;;;;;;34.98;31.06;97007.31;5090231;28;20040;-74
2021/06/18 09:06:42;;;;;;;6.40;5.80;;;;;;;34.87;32.85;97004.78;5083817;28;20398;-75
2021/06/18 09:09:31;;;;;;;6.93;6.28;;;;;;;35.42;31.85;97005.47;5077387;28;20035;-75
2021/06/18 09:12:03;;;;;;;6.50;5.75;;;;;;;35.51;30.92;97007.63;5084634;28;20078;-75
2021/06/18 09:14:39;;;;;;;6.00;5.40;;;;;;;35.87;32.01;97009.69;5076788;28;20035;-74
2021/06/18 09:17:17;;;;;;;6.75;5.57;;;;;;;36.30;31.05;97008.84;5098276;28;20085;-74
2021/06/18 09:20:00;;;;;;;8.10;5.57;;;;;;;35.98;30.35;97009.47;5080121;28;20031;-74
2021/06/18 09:22:36;;;;;;;7.50;5.20;;;;;;;36.19;31.71;97019.09;5103485;28;20540;-74
2021/06/18 09:25:18;;;;;;;5.93;5.38;;;;;;;36.23;31.62;97014.41;5063408;28;20115;-74
2021/06/18 09:27:49;;;;;;;5.75;5.35;;;;;;;36.25;31.36;97005.88;5087517;28;20416;-74
2021/06/18 09:30:32;;;;;;;9.35;6.18;;;;;;;35.77;30.55;97016.06;5082611;28;20032;-75
2021/06/18 09:32:58;;;;;;;6.65;6.00;;;;;;;35.87;31.67;97019.75;5086708;28;20491;-75
2021/06/18 09:35:24;;;;;;;5.78;5.28;;;;;;;35.68;31.86;97013.09;5089397;28;20107;-75
2021/06/18 09:37:54;;;;;;;5.68;5.18;;;;;;;35.42;32.04;97015.50;5096950;28;20119;-74
2021/06/18 09:40:21;;;;;;;6.18;5.57;;;;;;;35.42;31.21;97018.22;5077333;28;20157;-75
2021/06/18 09:43:09;;;;;;;6.55;5.90;;;;;;;35.13;31.18;97015.97;5108407;28;20030;-75
2021/06/18 09:45:36;;;;;;;6.70;6.20;;;;;;;34.83;31.69;97024.94;5100848;28;20032;-75
2021/06/18 09:48:12;;;;;;;6.22;5.63;;;;;;;34.63;32.70;97020.16;5070441;28;20028;-75
2021/06/18 09:50:42;;;;;;;6.28;5.65;;;;;;;34.37;33.21;97032.47;5083523;28;20083;-75
2021/06/18 09:53:22;;;;;;;6.55;5.93;;;;;;;34.35;33.81;97021.31;5072646;28;20076;-75
2021/06/18 09:56:04;;;;;;;7.57;5.80;;;;;;;34.25;33.70;97030.31;5098698;28;20027;-75
2021/06/18 09:58:32;;;;;;;6.53;5.68;;;;;;;34.30;33.65;97030.63;5088710;28;20495;-74
2021/06/18 10:01:24;;;;;;;6.75;5.15;;;;;;;34.36;34.80;97039.06;5091660;28;20055;-74
2021/06/18 10:04:14;;;;;;;5.35;4.90;;;;;;;34.22;35.21;97033.84;5065597;28;20028;-74
2021/06/18 10:06:40;;;;;;;5.88;5.30;;;;;;;34.43;32.91;97038.97;5084835;28;20046;-74
2021/06/18 10:09:18;;;;;;;5.10;4.70;;;;;;;34.31;33.48;97042.22;5067742;28;20172;-74
2021/06/18 10:11:45;;;;;;;5.95;5.38;;;;;;;34.33;33.90;97045.28;5078696;28;20044;-74
2021/06/18 10:14:12;;;;;;;6.10;5.50;;;;;;;34.29;33.88;97045.34;5057925;28;20491;-74
2021/06/18 10:16:41;;;;;;;5.55;5.10;;;;;;;34.37;33.59;97037.13;5067914;28;20039;-74
2021/06/18 10:19:07;;;;;;;6.82;5.38;;;;;;;34.74;32.78;97041.69;5087874;28;20121;-74
2021/06/18 10:21:42;;;;;;;5.65;5.03;;;;;;;35.42;32.40;97045.28;5096801;28;20028;-75
2021/06/18 10:24:08;;;;;;;7.47;6.22;;;;;;;35.69;32.71;97041.72;5070429;28;20032;-75
2021/06/18 10:26:34;;;;;;;8.65;5.45;;;;;;;36.09;31.90;97042.56;5085189;28;20032;-75
2021/06/18 10:29:00;;;;;;;6.03;5.53;;;;;;;36.37;31.10;97030.38;5073437;28;20496;-74
2021/06/18 10:31:37;;;;;;;6.20;5.72;;;;;;;36.48;30.38;97035.56;5068100;28;20036;-74
2021/06/18 10:34:15;;;;;;;8.85;6.22;;;;;;;36.78;30.00;97025.66;5068575;28;20027;-74
2021/06/18 10:36:42;;;;;;;6.60;5.88;;;;;;;36.50;31.43;97022.38;5073217;28;20028;-74
2021/06/18 10:39:14;;;;;;;12.43;6.28;;;;;;;36.08;30.97;97019.34;5085698;28;20070;-74
2021/06/18 10:41:53;;;;;;;6.35;5.43;;;;;;;35.38;32.01;97006.69;5087339;28;20067;-74
2021/06/18 10:44:37;;;;;;;6.70;6.10;;;;;;;35.12;33.50;96995.50;5079878;28;20043;-74
2021/06/18 10:47:06;;;;;;;8.63;6.03;;;;;;;35.06;33.57;96984.38;5079639;28;20038;-75
2021/06/18 10:49:40;;;;;;;7.72;5.85;;;;;;;35.06;32.83;96986.31;5064824;28;20060;-75
2021/06/18 10:52:25;;;;;;;7.07;5.93;;;;;;;35.22;33.85;97000.00;5105909;28;20031;-74
2021/06/18 10:54:58;;;;;;;6.15;5.53;;;;;;;35.72;33.53;96998.34;5089892;28;20123;-74
2021/06/18 10:57:28;;;;;;;6.13;5.30;;;;;;;36.40;31.56;96988.13;5066437;28;20029;-74
2021/06/18 11:00:17;;;;;;;9.32;6.80;;;;;;;36.89;31.06;96987.41;5105033;28;20039;-75
2021/06/18 11:02:44;;;;;;;7.03;6.32;;;;;;;36.82;30.47;96982.16;5080650;28;20880;-74
2021/06/18 11:05:25;;;;;;;14.32;6.57;;;;;;;36.69;31.13;96976.59;5070365;28;20085;-75
2021/06/18 11:07:50;;;;;;;6.60;6.00;;;;;;;36.75;30.00;96983.06;5081617;28;20047;-74
2021/06/18 11:10:28;;;;;;;6.70;5.78;;;;;;;36.66;31.49;96988.31;5103727;28;20035;-74
2021/06/18 11:13:02;;;;;;;7.20;6.50;;;;;;;37.14;30.58;96980.59;5080557;28;20494;-74
2021/06/18 11:15:27;;;;;;;7.05;5.57;;;;;;;37.52;28.98;96972.66;5096658;28;20043;-75
2021/06/18 11:18:03;;;;;;;7.35;6.75;;;;;;;36.88;28.91;96975.00;5084175;28;20481;-75
2021/06/18 11:20:35;;;;;;;6.53;5.93;;;;;;;37.14;29.50;96972.44;5086384;28;20494;-74
2021/06/18 11:23:16;;;;;;;6.72;6.13;;;;;;;37.06;29.57;96977.31;5097319;28;20389;-74
2021/06/18 11:25:42;;;;;;;6.95;6.30;;;;;;;36.98;29.48;96974.00;5069857;28;20032;-75
2021/06/18 11:28:17;;;;;;;7.07;6.43;;;;;;;36.55;29.57;96978.47;5085555;28;20050;-74
2021/06/18 11:30:58;;;;;;;8.45;7.22;;;;;;;36.42;30.93;96976.84;5084429;28;20431;-74
2021/06/18 11:33:35;;;;;;;6.80;6.15;;;;;;;37.01;30.53;96973.13;5044980;28;20035;-74
2021/06/18 11:36:08;;;;;;;9.02;7.20;;;;;;;37.20;31.13;96973.50;5098689;28;20050;-74